Terminal Aerodrome Forecast
Issued by NWS

Home | Current Version | Previous Version | Text Only | Print | Product List | Glossary On
Versions: 1 2 3 4 5 6 7 8 9 10 11 12 13
000
FTUS46 KPDT 052300
TAFBDN
TAF
KBDN 052320Z 0600/0624 01005KT P6SM BKN250
     FM060400 VRB04KT P6SM BKN250
     FM062100 01006KT P6SM SCT250=

USA.gov is the U.S. government's official web portal to all federal, state and local government web resources and services.